sensor_id;sensor_type;location;lat;lon;timestamp;P1;durP1;ratioP1;P2;durP2;ratioP2
14734;SDS011;7458;49.002;8.472;2023-04-19T00:00:50;20.25;;;15.38;;
14734;SDS011;7458;49.002;8.472;2023-04-19T00:03:16;18.83;;;15.32;;
14734;SDS011;7458;49.002;8.472;2023-04-19T00:05:42;19.45;;;14.43;;
14734;SDS011;7458;49.002;8.472;2023-04-19T00:08:08;17.52;;;14.15;;
14734;SDS011;7458;49.002;8.472;2023-04-19T00:10:34;17.45;;;15.27;;
14734;SDS011;7458;49.002;8.472;2023-04-19T00:13:00;19.15;;;14.13;;
14734;SDS011;7458;49.002;8.472;2023-04-19T00:15:27;19.85;;;16.17;;
14734;SDS011;7458;49.002;8.472;2023-04-19T00:17:52;16.83;;;14.32;;
14734;SDS011;7458;49.002;8.472;2023-04-19T00:20:19;16.10;;;14.23;;
14734;SDS011;7458;49.002;8.472;2023-04-19T00:22:45;21.30;;;14.93;;
14734;SDS011;7458;49.002;8.472;2023-04-19T00:25:11;19.73;;;14.00;;
14734;SDS011;7458;49.002;8.472;2023-04-19T00:27:37;16.85;;;12.77;;
14734;SDS011;7458;49.002;8.472;2023-04-19T00:30:03;14.65;;;11.95;;
14734;SDS011;7458;49.002;8.472;2023-04-19T00:32:29;18.73;;;14.25;;
14734;SDS011;7458;49.002;8.472;2023-04-19T00:34:55;19.60;;;15.02;;
14734;SDS011;7458;49.002;8.472;2023-04-19T00:37:21;19.38;;;14.20;;
14734;SDS011;7458;49.002;8.472;2023-04-19T00:39:47;18.75;;;15.07;;
14734;SDS011;7458;49.002;8.472;2023-04-19T00:42:13;18.77;;;14.30;;
14734;SDS011;7458;49.002;8.472;2023-04-19T00:44:39;21.80;;;15.05;;
14734;SDS011;7458;49.002;8.472;2023-04-19T00:47:04;17.73;;;14.52;;
14734;SDS011;7458;49.002;8.472;2023-04-19T00:49:30;18.77;;;13.88;;
14734;SDS011;7458;49.002;8.472;2023-04-19T00:51:56;17.58;;;13.00;;
14734;SDS011;7458;49.002;8.472;2023-04-19T00:54:22;16.35;;;13.40;;
14734;SDS011;7458;49.002;8.472;2023-04-19T00:56:48;16.73;;;13.80;;
14734;SDS011;7458;49.002;8.472;2023-04-19T00:59:15;16.50;;;14.57;;
14734;SDS011;7458;49.002;8.472;2023-04-19T01:01:42;17.77;;;15.52;;
14734;SDS011;7458;49.002;8.472;2023-04-19T01:04:08;21.33;;;15.95;;
14734;SDS011;7458;49.002;8.472;2023-04-19T01:06:34;17.52;;;13.32;;
14734;SDS011;7458;49.002;8.472;2023-04-19T01:09:02;17.77;;;13.93;;
14734;SDS011;7458;49.002;8.472;2023-04-19T01:11:28;18.65;;;14.45;;
14734;SDS011;7458;49.002;8.472;2023-04-19T01:13:55;17.92;;;14.30;;
14734;SDS011;7458;49.002;8.472;2023-04-19T01:16:22;16.73;;;12.85;;
14734;SDS011;7458;49.002;8.472;2023-04-19T01:18:51;18.33;;;13.88;;
14734;SDS011;7458;49.002;8.472;2023-04-19T01:21:17;17.17;;;15.20;;
14734;SDS011;7458;49.002;8.472;2023-04-19T01:23:44;20.15;;;15.57;;
14734;SDS011;7458;49.002;8.472;2023-04-19T01:26:10;18.33;;;13.30;;
14734;SDS011;7458;49.002;8.472;2023-04-19T01:28:36;23.30;;;15.65;;
14734;SDS011;7458;49.002;8.472;2023-04-19T01:31:02;20.80;;;16.90;;
14734;SDS011;7458;49.002;8.472;2023-04-19T01:33:28;19.27;;;15.02;;
14734;SDS011;7458;49.002;8.472;2023-04-19T01:35:53;20.23;;;16.55;;
14734;SDS011;7458;49.002;8.472;2023-04-19T01:38:19;18.80;;;15.32;;
14734;SDS011;7458;49.002;8.472;2023-04-19T01:40:45;18.25;;;15.23;;
14734;SDS011;7458;49.002;8.472;2023-04-19T01:43:11;17.55;;;15.07;;
14734;SDS011;7458;49.002;8.472;2023-04-19T01:45:41;19.80;;;17.05;;
14734;SDS011;7458;49.002;8.472;2023-04-19T01:48:06;21.38;;;16.20;;
14734;SDS011;7458;49.002;8.472;2023-04-19T01:50:32;18.23;;;14.77;;
14734;SDS011;7458;49.002;8.472;2023-04-19T01:52:58;18.45;;;14.45;;
14734;SDS011;7458;49.002;8.472;2023-04-19T01:55:25;17.45;;;15.10;;
14734;SDS011;7458;49.002;8.472;2023-04-19T01:57:51;17.92;;;16.10;;
14734;SDS011;7458;49.002;8.472;2023-04-19T02:00:18;19.90;;;15.75;;
14734;SDS011;7458;49.002;8.472;2023-04-19T02:02:45;21.42;;;16.58;;
14734;SDS011;7458;49.002;8.472;2023-04-19T02:05:11;18.58;;;16.65;;
14734;SDS011;7458;49.002;8.472;2023-04-19T02:07:37;21.08;;;16.27;;
14734;SDS011;7458;49.002;8.472;2023-04-19T02:10:03;17.50;;;15.23;;
14734;SDS011;7458;49.002;8.472;2023-04-19T02:12:30;20.15;;;17.15;;
14734;SDS011;7458;49.002;8.472;2023-04-19T02:14:58;19.60;;;17.55;;
14734;SDS011;7458;49.002;8.472;2023-04-19T02:17:26;21.20;;;16.17;;
14734;SDS011;7458;49.002;8.472;2023-04-19T02:19:52;24.70;;;17.20;;
14734;SDS011;7458;49.002;8.472;2023-04-19T02:22:18;20.00;;;15.95;;
14734;SDS011;7458;49.002;8.472;2023-04-19T02:24:45;21.83;;;19.20;;
14734;SDS011;7458;49.002;8.472;2023-04-19T02:27:14;22.77;;;16.92;;
14734;SDS011;7458;49.002;8.472;2023-04-19T02:29:40;21.75;;;16.90;;
14734;SDS011;7458;49.002;8.472;2023-04-19T02:32:06;21.75;;;16.85;;
14734;SDS011;7458;49.002;8.472;2023-04-19T02:34:32;18.23;;;15.00;;
14734;SDS011;7458;49.002;8.472;2023-04-19T02:36:59;18.15;;;16.25;;
14734;SDS011;7458;49.002;8.472;2023-04-19T02:39:25;23.58;;;15.63;;
14734;SDS011;7458;49.002;8.472;2023-04-19T02:41:51;20.23;;;15.30;;
14734;SDS011;7458;49.002;8.472;2023-04-19T02:44:17;21.23;;;17.30;;
14734;SDS011;7458;49.002;8.472;2023-04-19T02:46:52;20.73;;;15.65;;
14734;SDS011;7458;49.002;8.472;2023-04-19T02:49:19;21.88;;;16.05;;
14734;SDS011;7458;49.002;8.472;2023-04-19T02:51:45;24.10;;;17.40;;
14734;SDS011;7458;49.002;8.472;2023-04-19T02:54:11;20.02;;;15.10;;
14734;SDS011;7458;49.002;8.472;2023-04-19T02:56:38;19.05;;;15.57;;
14734;SDS011;7458;49.002;8.472;2023-04-19T02:59:04;22.70;;;15.68;;
14734;SDS011;7458;49.002;8.472;2023-04-19T03:01:31;16.48;;;14.75;;
14734;SDS011;7458;49.002;8.472;2023-04-19T03:03:57;19.85;;;14.45;;
14734;SDS011;7458;49.002;8.472;2023-04-19T03:06:22;17.67;;;15.88;;
14734;SDS011;7458;49.002;8.472;2023-04-19T03:08:50;20.70;;;16.00;;
14734;SDS011;7458;49.002;8.472;2023-04-19T03:11:16;21.23;;;16.65;;
14734;SDS011;7458;49.002;8.472;2023-04-19T03:13:42;19.25;;;15.80;;
14734;SDS011;7458;49.002;8.472;2023-04-19T03:16:08;20.50;;;16.77;;
14734;SDS011;7458;49.002;8.472;2023-04-19T03:18:34;20.90;;;15.63;;
14734;SDS011;7458;49.002;8.472;2023-04-19T03:21:01;21.50;;;14.82;;
14734;SDS011;7458;49.002;8.472;2023-04-19T03:23:27;19.85;;;15.85;;
14734;SDS011;7458;49.002;8.472;2023-04-19T03:25:54;19.88;;;15.75;;
14734;SDS011;7458;49.002;8.472;2023-04-19T03:28:21;18.52;;;14.80;;
14734;SDS011;7458;49.002;8.472;2023-04-19T03:30:47;28.20;;;18.90;;
14734;SDS011;7458;49.002;8.472;2023-04-19T03:33:12;15.55;;;13.95;;
14734;SDS011;7458;49.002;8.472;2023-04-19T03:35:38;17.58;;;14.10;;
14734;SDS011;7458;49.002;8.472;2023-04-19T03:38:04;17.60;;;14.63;;
14734;SDS011;7458;49.002;8.472;2023-04-19T03:40:31;19.70;;;15.40;;
14734;SDS011;7458;49.002;8.472;2023-04-19T03:42:58;17.10;;;14.75;;
14734;SDS011;7458;49.002;8.472;2023-04-19T03:45:23;17.42;;;14.70;;
14734;SDS011;7458;49.002;8.472;2023-04-19T03:47:50;16.92;;;13.57;;
14734;SDS011;7458;49.002;8.472;2023-04-19T03:50:16;18.58;;;15.13;;
14734;SDS011;7458;49.002;8.472;2023-04-19T03:52:42;17.83;;;14.32;;
14734;SDS011;7458;49.002;8.472;2023-04-19T03:55:07;18.95;;;14.27;;
14734;SDS011;7458;49.002;8.472;2023-04-19T03:57:34;15.40;;;13.77;;
14734;SDS011;7458;49.002;8.472;2023-04-19T04:00:00;22.55;;;14.35;;
14734;SDS011;7458;49.002;8.472;2023-04-19T04:02:31;17.80;;;14.00;;
14734;SDS011;7458;49.002;8.472;2023-04-19T04:04:57;14.93;;;13.02;;
14734;SDS011;7458;49.002;8.472;2023-04-19T04:07:22;14.38;;;12.88;;
14734;SDS011;7458;49.002;8.472;2023-04-19T04:09:49;18.75;;;12.85;;
14734;SDS011;7458;49.002;8.472;2023-04-19T04:12:15;16.17;;;14.57;;
14734;SDS011;7458;49.002;8.472;2023-04-19T04:14:41;16.50;;;13.55;;
14734;SDS011;7458;49.002;8.472;2023-04-19T04:17:07;19.15;;;14.27;;
14734;SDS011;7458;49.002;8.472;2023-04-19T04:19:33;15.32;;;12.95;;
14734;SDS011;7458;49.002;8.472;2023-04-19T04:21:59;17.85;;;14.93;;
14734;SDS011;7458;49.002;8.472;2023-04-19T04:24:24;16.58;;;13.60;;
14734;SDS011;7458;49.002;8.472;2023-04-19T04:26:51;18.55;;;14.45;;
14734;SDS011;7458;49.002;8.472;2023-04-19T04:29:17;15.18;;;13.07;;
14734;SDS011;7458;49.002;8.472;2023-04-19T04:31:43;17.13;;;14.98;;
14734;SDS011;7458;49.002;8.472;2023-04-19T04:34:09;15.18;;;12.65;;
14734;SDS011;7458;49.002;8.472;2023-04-19T04:36:35;23.73;;;14.57;;
14734;SDS011;7458;49.002;8.472;2023-04-19T04:39:01;17.52;;;13.73;;
14734;SDS011;7458;49.002;8.472;2023-04-19T04:41:28;17.15;;;14.48;;
14734;SDS011;7458;49.002;8.472;2023-04-19T04:43:55;18.17;;;12.75;;
14734;SDS011;7458;49.002;8.472;2023-04-19T04:46:22;15.82;;;12.90;;
14734;SDS011;7458;49.002;8.472;2023-04-19T04:48:49;16.35;;;14.07;;
14734;SDS011;7458;49.002;8.472;2023-04-19T04:51:16;16.60;;;13.52;;
14734;SDS011;7458;49.002;8.472;2023-04-19T04:53:42;13.90;;;11.93;;
14734;SDS011;7458;49.002;8.472;2023-04-19T04:56:08;14.90;;;13.15;;
14734;SDS011;7458;49.002;8.472;2023-04-19T04:58:34;16.75;;;14.25;;
14734;SDS011;7458;49.002;8.472;2023-04-19T05:01:00;22.83;;;13.75;;
14734;SDS011;7458;49.002;8.472;2023-04-19T05:03:26;16.45;;;12.73;;
14734;SDS011;7458;49.002;8.472;2023-04-19T05:05:52;15.55;;;13.70;;
14734;SDS011;7458;49.002;8.472;2023-04-19T05:08:18;15.30;;;13.02;;
14734;SDS011;7458;49.002;8.472;2023-04-19T05:10:44;14.88;;;12.85;;
14734;SDS011;7458;49.002;8.472;2023-04-19T05:13:09;15.80;;;12.65;;
14734;SDS011;7458;49.002;8.472;2023-04-19T05:15:36;15.55;;;11.63;;
14734;SDS011;7458;49.002;8.472;2023-04-19T05:18:02;15.20;;;12.93;;
14734;SDS011;7458;49.002;8.472;2023-04-19T05:20:28;19.05;;;12.38;;
14734;SDS011;7458;49.002;8.472;2023-04-19T05:22:57;21.23;;;14.38;;
14734;SDS011;7458;49.002;8.472;2023-04-19T05:25:24;16.35;;;13.18;;
14734;SDS011;7458;49.002;8.472;2023-04-19T05:27:51;18.35;;;13.65;;
14734;SDS011;7458;49.002;8.472;2023-04-19T05:30:17;14.50;;;12.15;;
14734;SDS011;7458;49.002;8.472;2023-04-19T05:32:43;15.02;;;13.07;;
14734;SDS011;7458;49.002;8.472;2023-04-19T05:35:09;14.15;;;11.85;;
14734;SDS011;7458;49.002;8.472;2023-04-19T05:37:35;16.90;;;13.88;;
14734;SDS011;7458;49.002;8.472;2023-04-19T05:40:02;15.48;;;12.48;;
14734;SDS011;7458;49.002;8.472;2023-04-19T05:42:29;13.88;;;11.23;;
14734;SDS011;7458;49.002;8.472;2023-04-19T05:44:55;14.38;;;12.95;;
14734;SDS011;7458;49.002;8.472;2023-04-19T05:47:21;19.75;;;13.18;;
14734;SDS011;7458;49.002;8.472;2023-04-19T05:49:47;18.65;;;11.98;;
14734;SDS011;7458;49.002;8.472;2023-04-19T05:52:13;15.00;;;12.00;;
14734;SDS011;7458;49.002;8.472;2023-04-19T05:54:39;14.65;;;13.18;;
14734;SDS011;7458;49.002;8.472;2023-04-19T05:57:05;16.23;;;12.32;;
14734;SDS011;7458;49.002;8.472;2023-04-19T05:59:31;15.18;;;12.73;;
14734;SDS011;7458;49.002;8.472;2023-04-19T06:01:56;15.32;;;12.52;;
14734;SDS011;7458;49.002;8.472;2023-04-19T06:04:22;18.85;;;15.00;;
14734;SDS011;7458;49.002;8.472;2023-04-19T06:06:48;18.60;;;11.82;;
14734;SDS011;7458;49.002;8.472;2023-04-19T06:09:14;19.63;;;11.88;;
14734;SDS011;7458;49.002;8.472;2023-04-19T06:11:42;13.90;;;12.30;;
14734;SDS011;7458;49.002;8.472;2023-04-19T06:14:07;14.20;;;12.45;;
14734;SDS011;7458;49.002;8.472;2023-04-19T06:16:35;10.80;;;9.30;;
14734;SDS011;7458;49.002;8.472;2023-04-19T06:19:01;12.82;;;11.52;;
14734;SDS011;7458;49.002;8.472;2023-04-19T06:21:30;12.82;;;11.45;;
14734;SDS011;7458;49.002;8.472;2023-04-19T06:23:56;18.52;;;15.15;;
14734;SDS011;7458;49.002;8.472;2023-04-19T06:26:22;15.98;;;13.02;;
14734;SDS011;7458;49.002;8.472;2023-04-19T06:28:48;14.00;;;11.27;;
14734;SDS011;7458;49.002;8.472;2023-04-19T06:31:15;14.85;;;11.60;;
14734;SDS011;7458;49.002;8.472;2023-04-19T06:33:41;14.18;;;11.05;;
14734;SDS011;7458;49.002;8.472;2023-04-19T06:36:07;12.88;;;11.10;;
14734;SDS011;7458;49.002;8.472;2023-04-19T06:38:34;12.80;;;11.45;;
14734;SDS011;7458;49.002;8.472;2023-04-19T06:41:02;11.77;;;10.57;;
14734;SDS011;7458;49.002;8.472;2023-04-19T06:43:29;11.70;;;10.50;;
14734;SDS011;7458;49.002;8.472;2023-04-19T06:46:01;13.30;;;10.40;;
14734;SDS011;7458;49.002;8.472;2023-04-19T06:48:30;11.50;;;10.45;;
14734;SDS011;7458;49.002;8.472;2023-04-19T06:50:58;12.30;;;11.10;;
14734;SDS011;7458;49.002;8.472;2023-04-19T06:53:24;10.35;;;9.30;;
14734;SDS011;7458;49.002;8.472;2023-04-19T06:55:58;15.80;;;12.48;;
14734;SDS011;7458;49.002;8.472;2023-04-19T06:58:26;12.35;;;9.73;;
14734;SDS011;7458;49.002;8.472;2023-04-19T07:00:53;11.48;;;10.23;;
14734;SDS011;7458;49.002;8.472;2023-04-19T07:03:19;11.20;;;10.05;;
14734;SDS011;7458;49.002;8.472;2023-04-19T07:05:46;12.07;;;10.05;;
14734;SDS011;7458;49.002;8.472;2023-04-19T07:08:12;12.27;;;11.18;;
14734;SDS011;7458;49.002;8.472;2023-04-19T07:10:38;10.73;;;9.57;;
14734;SDS011;7458;49.002;8.472;2023-04-19T07:13:04;10.80;;;9.32;;
14734;SDS011;7458;49.002;8.472;2023-04-19T07:15:29;11.32;;;10.15;;
14734;SDS011;7458;49.002;8.472;2023-04-19T07:17:55;10.60;;;9.50;;
14734;SDS011;7458;49.002;8.472;2023-04-19T07:20:21;11.00;;;9.25;;
14734;SDS011;7458;49.002;8.472;2023-04-19T07:22:47;9.90;;;8.88;;
14734;SDS011;7458;49.002;8.472;2023-04-19T07:25:13;10.57;;;9.55;;
14734;SDS011;7458;49.002;8.472;2023-04-19T07:27:39;9.52;;;8.55;;
14734;SDS011;7458;49.002;8.472;2023-04-19T07:30:05;11.23;;;9.60;;
14734;SDS011;7458;49.002;8.472;2023-04-19T07:32:31;12.68;;;10.40;;
14734;SDS011;7458;49.002;8.472;2023-04-19T07:34:57;10.10;;;9.10;;
14734;SDS011;7458;49.002;8.472;2023-04-19T07:37:23;10.60;;;9.25;;
14734;SDS011;7458;49.002;8.472;2023-04-19T07:39:48;11.05;;;9.70;;
14734;SDS011;7458;49.002;8.472;2023-04-19T07:42:14;13.10;;;9.65;;
14734;SDS011;7458;49.002;8.472;2023-04-19T07:44:40;11.05;;;10.00;;
14734;SDS011;7458;49.002;8.472;2023-04-19T07:47:06;10.88;;;9.18;;
14734;SDS011;7458;49.002;8.472;2023-04-19T07:49:31;10.27;;;8.35;;
14734;SDS011;7458;49.002;8.472;2023-04-19T07:52:01;8.27;;;7.35;;
14734;SDS011;7458;49.002;8.472;2023-04-19T07:54:30;10.77;;;9.68;;
14734;SDS011;7458;49.002;8.472;2023-04-19T07:56:56;12.15;;;9.63;;
14734;SDS011;7458;49.002;8.472;2023-04-19T07:59:23;11.45;;;9.05;;
14734;SDS011;7458;49.002;8.472;2023-04-19T08:01:49;10.70;;;9.07;;
14734;SDS011;7458;49.002;8.472;2023-04-19T08:04:14;12.55;;;8.63;;
14734;SDS011;7458;49.002;8.472;2023-04-19T08:06:41;11.70;;;9.63;;
14734;SDS011;7458;49.002;8.472;2023-04-19T08:09:07;12.10;;;8.43;;
14734;SDS011;7458;49.002;8.472;2023-04-19T08:11:33;10.48;;;9.10;;
14734;SDS011;7458;49.002;8.472;2023-04-19T08:13:59;11.35;;;9.45;;
14734;SDS011;7458;49.002;8.472;2023-04-19T08:16:24;9.65;;;8.55;;
14734;SDS011;7458;49.002;8.472;2023-04-19T08:18:53;10.77;;;9.73;;
14734;SDS011;7458;49.002;8.472;2023-04-19T08:21:19;18.55;;;11.23;;
14734;SDS011;7458;49.002;8.472;2023-04-19T08:23:45;12.63;;;9.57;;
14734;SDS011;7458;49.002;8.472;2023-04-19T08:26:11;12.18;;;9.88;;
14734;SDS011;7458;49.002;8.472;2023-04-19T08:28:37;9.63;;;8.52;;
14734;SDS011;7458;49.002;8.472;2023-04-19T08:31:06;11.27;;;9.63;;
14734;SDS011;7458;49.002;8.472;2023-04-19T08:33:32;11.07;;;8.40;;
14734;SDS011;7458;49.002;8.472;2023-04-19T08:35:58;12.07;;;9.80;;
14734;SDS011;7458;49.002;8.472;2023-04-19T08:38:24;13.60;;;9.80;;
14734;SDS011;7458;49.002;8.472;2023-04-19T08:40:51;12.52;;;10.05;;
14734;SDS011;7458;49.002;8.472;2023-04-19T08:43:19;13.25;;;8.85;;
14734;SDS011;7458;49.002;8.472;2023-04-19T08:45:49;13.75;;;10.32;;
14734;SDS011;7458;49.002;8.472;2023-04-19T08:48:15;13.25;;;10.30;;
14734;SDS011;7458;49.002;8.472;2023-04-19T08:50:42;9.73;;;8.77;;
14734;SDS011;7458;49.002;8.472;2023-04-19T08:53:12;10.73;;;9.73;;
14734;SDS011;7458;49.002;8.472;2023-04-19T08:55:40;12.82;;;9.18;;
14734;SDS011;7458;49.002;8.472;2023-04-19T08:58:07;11.48;;;9.60;;
14734;SDS011;7458;49.002;8.472;2023-04-19T09:00:36;10.80;;;9.80;;
14734;SDS011;7458;49.002;8.472;2023-04-19T09:03:03;14.55;;;9.30;;
14734;SDS011;7458;49.002;8.472;2023-04-19T09:05:32;12.13;;;10.43;;
14734;SDS011;7458;49.002;8.472;2023-04-19T09:10:52;10.27;;;8.82;;
14734;SDS011;7458;49.002;8.472;2023-04-19T09:13:19;11.45;;;10.27;;
14734;SDS011;7458;49.002;8.472;2023-04-19T09:15:45;15.13;;;10.30;;
14734;SDS011;7458;49.002;8.472;2023-04-19T09:18:11;14.13;;;10.25;;
14734;SDS011;7458;49.002;8.472;2023-04-19T09:20:38;12.40;;;11.18;;
14734;SDS011;7458;49.002;8.472;2023-04-19T09:23:10;13.52;;;10.75;;
14734;SDS011;7458;49.002;8.472;2023-04-19T09:25:58;14.40;;;10.05;;
14734;SDS011;7458;49.002;8.472;2023-04-19T09:30:53;13.82;;;10.32;;
14734;SDS011;7458;49.002;8.472;2023-04-19T09:33:32;14.85;;;11.48;;
14734;SDS011;7458;49.002;8.472;2023-04-19T09:36:02;12.60;;;10.50;;
14734;SDS011;7458;49.002;8.472;2023-04-19T09:38:28;14.23;;;10.70;;
14734;SDS011;7458;49.002;8.472;2023-04-19T09:41:07;13.07;;;10.88;;
14734;SDS011;7458;49.002;8.472;2023-04-19T09:43:34;15.02;;;11.18;;
14734;SDS011;7458;49.002;8.472;2023-04-19T09:46:00;11.82;;;10.63;;
14734;SDS011;7458;49.002;8.472;2023-04-19T09:48:25;12.25;;;10.93;;
14734;SDS011;7458;49.002;8.472;2023-04-19T09:50:52;13.68;;;9.88;;
14734;SDS011;7458;49.002;8.472;2023-04-19T09:53:24;10.57;;;9.48;;
14734;SDS011;7458;49.002;8.472;2023-04-19T09:55:54;13.70;;;10.80;;
14734;SDS011;7458;49.002;8.472;2023-04-19T09:58:20;14.20;;;10.07;;
14734;SDS011;7458;49.002;8.472;2023-04-19T10:00:47;10.80;;;9.77;;
14734;SDS011;7458;49.002;8.472;2023-04-19T10:03:14;12.07;;;8.85;;
14734;SDS011;7458;49.002;8.472;2023-04-19T10:05:42;12.43;;;8.13;;
14734;SDS011;7458;49.002;8.472;2023-04-19T10:08:10;9.60;;;8.25;;
14734;SDS011;7458;49.002;8.472;2023-04-19T10:10:41;10.07;;;7.65;;
14734;SDS011;7458;49.002;8.472;2023-04-19T10:13:10;10.85;;;8.45;;
14734;SDS011;7458;49.002;8.472;2023-04-19T10:15:37;23.50;;;21.30;;
14734;SDS011;7458;49.002;8.472;2023-04-19T10:18:07;8.30;;;7.45;;
14734;SDS011;7458;49.002;8.472;2023-04-19T10:23:22;13.05;;;8.25;;
14734;SDS011;7458;49.002;8.472;2023-04-19T10:25:53;10.10;;;9.10;;
14734;SDS011;7458;49.002;8.472;2023-04-19T10:30:54;14.38;;;9.15;;
14734;SDS011;7458;49.002;8.472;2023-04-19T10:33:26;11.93;;;9.30;;
14734;SDS011;7458;49.002;8.472;2023-04-19T10:35:58;10.57;;;8.57;;
14734;SDS011;7458;49.002;8.472;2023-04-19T10:38:38;12.18;;;9.23;;
14734;SDS011;7458;49.002;8.472;2023-04-19T10:41:07;12.02;;;9.95;;
14734;SDS011;7458;49.002;8.472;2023-04-19T10:43:38;10.80;;;9.15;;
14734;SDS011;7458;49.002;8.472;2023-04-19T10:48:58;9.32;;;8.15;;
14734;SDS011;7458;49.002;8.472;2023-04-19T10:51:26;9.77;;;8.70;;
14734;SDS011;7458;49.002;8.472;2023-04-19T11:01:45;11.02;;;9.18;;
14734;SDS011;7458;49.002;8.472;2023-04-19T11:04:17;11.00;;;9.88;;
14734;SDS011;7458;49.002;8.472;2023-04-19T11:09:28;9.63;;;8.52;;
14734;SDS011;7458;49.002;8.472;2023-04-19T11:12:02;12.70;;;9.73;;
14734;SDS011;7458;49.002;8.472;2023-04-19T11:14:53;10.32;;;8.93;;
14734;SDS011;7458;49.002;8.472;2023-04-19T11:17:22;15.48;;;9.88;;
14734;SDS011;7458;49.002;8.472;2023-04-19T11:19:54;10.45;;;9.38;;
14734;SDS011;7458;49.002;8.472;2023-04-19T11:22:31;9.60;;;8.60;;
14734;SDS011;7458;49.002;8.472;2023-04-19T11:25:34;12.90;;;9.52;;
14734;SDS011;7458;49.002;8.472;2023-04-19T11:27:55;9.68;;;8.30;;
14734;SDS011;7458;49.002;8.472;2023-04-19T11:30:27;12.68;;;9.10;;
14734;SDS011;7458;49.002;8.472;2023-04-19T11:32:55;12.20;;;10.15;;
14734;SDS011;7458;49.002;8.472;2023-04-19T11:35:25;10.10;;;9.13;;
14734;SDS011;7458;49.002;8.472;2023-04-19T11:37:53;11.75;;;10.05;;
14734;SDS011;7458;49.002;8.472;2023-04-19T11:40:21;12.20;;;10.00;;
14734;SDS011;7458;49.002;8.472;2023-04-19T11:42:53;11.77;;;10.40;;
14734;SDS011;7458;49.002;8.472;2023-04-19T11:45:24;11.60;;;8.57;;
14734;SDS011;7458;49.002;8.472;2023-04-19T11:50:40;11.73;;;9.55;;
14734;SDS011;7458;49.002;8.472;2023-04-19T11:53:19;12.88;;;10.00;;
14734;SDS011;7458;49.002;8.472;2023-04-19T11:55:50;14.07;;;10.40;;
14734;SDS011;7458;49.002;8.472;2023-04-19T11:58:27;10.20;;;8.95;;
14734;SDS011;7458;49.002;8.472;2023-04-19T12:03:44;12.48;;;10.50;;
14734;SDS011;7458;49.002;8.472;2023-04-19T12:06:23;11.32;;;9.65;;
14734;SDS011;7458;49.002;8.472;2023-04-19T12:08:56;11.40;;;9.65;;
14734;SDS011;7458;49.002;8.472;2023-04-19T12:11:25;15.75;;;10.32;;
14734;SDS011;7458;49.002;8.472;2023-04-19T12:14:08;14.82;;;10.85;;
14734;SDS011;7458;49.002;8.472;2023-04-19T12:16:43;13.55;;;10.70;;
14734;SDS011;7458;49.002;8.472;2023-04-19T12:19:13;12.02;;;10.82;;
14734;SDS011;7458;49.002;8.472;2023-04-19T12:21:44;13.77;;;10.48;;
14734;SDS011;7458;49.002;8.472;2023-04-19T12:24:13;12.35;;;11.02;;
14734;SDS011;7458;49.002;8.472;2023-04-19T12:26:53;11.90;;;9.65;;
14734;SDS011;7458;49.002;8.472;2023-04-19T12:29:21;10.57;;;9.48;;
14734;SDS011;7458;49.002;8.472;2023-04-19T12:31:46;14.27;;;11.13;;
14734;SDS011;7458;49.002;8.472;2023-04-19T12:34:12;14.60;;;10.70;;
14734;SDS011;7458;49.002;8.472;2023-04-19T12:36:38;13.27;;;9.90;;
14734;SDS011;7458;49.002;8.472;2023-04-19T12:39:04;14.48;;;10.18;;
14734;SDS011;7458;49.002;8.472;2023-04-19T12:41:31;14.52;;;12.88;;
14734;SDS011;7458;49.002;8.472;2023-04-19T12:43:57;11.65;;;10.38;;
14734;SDS011;7458;49.002;8.472;2023-04-19T12:46:23;14.43;;;12.07;;
14734;SDS011;7458;49.002;8.472;2023-04-19T12:48:49;13.65;;;12.25;;
14734;SDS011;7458;49.002;8.472;2023-04-19T12:51:15;11.50;;;10.27;;
14734;SDS011;7458;49.002;8.472;2023-04-19T12:53:46;14.35;;;12.82;;
14734;SDS011;7458;49.002;8.472;2023-04-19T12:56:13;16.38;;;11.63;;
14734;SDS011;7458;49.002;8.472;2023-04-19T12:58:41;14.18;;;12.80;;
14734;SDS011;7458;49.002;8.472;2023-04-19T13:01:06;14.57;;;13.18;;
14734;SDS011;7458;49.002;8.472;2023-04-19T13:03:32;14.70;;;13.15;;
14734;SDS011;7458;49.002;8.472;2023-04-19T13:06:03;15.45;;;13.52;;
14734;SDS011;7458;49.002;8.472;2023-04-19T13:08:29;15.60;;;14.10;;
14734;SDS011;7458;49.002;8.472;2023-04-19T13:10:56;19.67;;;14.65;;
14734;SDS011;7458;49.002;8.472;2023-04-19T13:13:26;16.08;;;12.88;;
14734;SDS011;7458;49.002;8.472;2023-04-19T13:15:53;16.40;;;13.02;;
14734;SDS011;7458;49.002;8.472;2023-04-19T13:18:19;19.98;;;14.73;;
14734;SDS011;7458;49.002;8.472;2023-04-19T13:20:46;18.08;;;14.48;;
14734;SDS011;7458;49.002;8.472;2023-04-19T13:23:13;17.30;;;15.00;;
14734;SDS011;7458;49.002;8.472;2023-04-19T13:25:39;19.00;;;15.30;;
14734;SDS011;7458;49.002;8.472;2023-04-19T13:28:05;19.85;;;16.08;;
14734;SDS011;7458;49.002;8.472;2023-04-19T13:30:31;20.02;;;15.07;;
14734;SDS011;7458;49.002;8.472;2023-04-19T13:32:57;19.05;;;15.45;;
14734;SDS011;7458;49.002;8.472;2023-04-19T13:35:24;18.17;;;14.95;;
14734;SDS011;7458;49.002;8.472;2023-04-19T13:37:51;21.52;;;17.02;;
14734;SDS011;7458;49.002;8.472;2023-04-19T13:40:16;20.42;;;18.27;;
14734;SDS011;7458;49.002;8.472;2023-04-19T13:42:42;23.88;;;18.73;;
14734;SDS011;7458;49.002;8.472;2023-04-19T13:45:08;17.48;;;14.63;;
14734;SDS011;7458;49.002;8.472;2023-04-19T13:47:34;19.40;;;15.80;;
14734;SDS011;7458;49.002;8.472;2023-04-19T13:50:00;20.83;;;15.85;;
14734;SDS011;7458;49.002;8.472;2023-04-19T13:52:26;18.40;;;16.20;;
14734;SDS011;7458;49.002;8.472;2023-04-19T13:54:51;23.17;;;16.25;;
14734;SDS011;7458;49.002;8.472;2023-04-19T13:57:18;17.75;;;15.90;;
14734;SDS011;7458;49.002;8.472;2023-04-19T13:59:43;18.83;;;16.42;;
14734;SDS011;7458;49.002;8.472;2023-04-19T14:02:09;18.70;;;15.25;;
14734;SDS011;7458;49.002;8.472;2023-04-19T14:04:35;17.70;;;15.80;;
14734;SDS011;7458;49.002;8.472;2023-04-19T14:07:00;17.85;;;14.88;;
14734;SDS011;7458;49.002;8.472;2023-04-19T14:09:26;21.02;;;16.13;;
14734;SDS011;7458;49.002;8.472;2023-04-19T14:11:52;19.92;;;15.25;;
14734;SDS011;7458;49.002;8.472;2023-04-19T14:14:18;17.02;;;14.40;;
14734;SDS011;7458;49.002;8.472;2023-04-19T14:16:44;18.30;;;16.05;;
14734;SDS011;7458;49.002;8.472;2023-04-19T14:19:10;19.92;;;15.75;;
14734;SDS011;7458;49.002;8.472;2023-04-19T14:21:36;23.60;;;15.70;;
14734;SDS011;7458;49.002;8.472;2023-04-19T14:24:02;20.10;;;16.35;;
14734;SDS011;7458;49.002;8.472;2023-04-19T14:26:28;17.95;;;16.00;;
14734;SDS011;7458;49.002;8.472;2023-04-19T14:28:54;16.27;;;14.60;;
14734;SDS011;7458;49.002;8.472;2023-04-19T14:31:20;22.17;;;13.35;;
14734;SDS011;7458;49.002;8.472;2023-04-19T14:33:46;17.25;;;13.32;;
14734;SDS011;7458;49.002;8.472;2023-04-19T14:36:12;17.08;;;13.63;;
14734;SDS011;7458;49.002;8.472;2023-04-19T14:38:39;15.73;;;13.57;;
14734;SDS011;7458;49.002;8.472;2023-04-19T14:41:04;17.55;;;12.45;;
14734;SDS011;7458;49.002;8.472;2023-04-19T14:43:30;14.45;;;12.32;;
14734;SDS011;7458;49.002;8.472;2023-04-19T14:45:57;16.92;;;12.98;;
14734;SDS011;7458;49.002;8.472;2023-04-19T14:48:23;13.73;;;11.73;;
14734;SDS011;7458;49.002;8.472;2023-04-19T14:50:49;14.45;;;12.23;;
14734;SDS011;7458;49.002;8.472;2023-04-19T14:53:15;17.75;;;14.48;;
14734;SDS011;7458;49.002;8.472;2023-04-19T14:55:41;13.68;;;11.32;;
14734;SDS011;7458;49.002;8.472;2023-04-19T14:58:06;14.40;;;11.70;;
14734;SDS011;7458;49.002;8.472;2023-04-19T15:00:33;15.10;;;12.07;;
14734;SDS011;7458;49.002;8.472;2023-04-19T15:02:59;14.57;;;12.32;;
14734;SDS011;7458;49.002;8.472;2023-04-19T15:05:25;16.08;;;11.95;;
14734;SDS011;7458;49.002;8.472;2023-04-19T15:07:52;14.68;;;11.77;;